Time;durP1;ratioP1;P1;durP2;ratioP2;P2;SDS_P1;SDS_P2;PMS_P1;PMS_P2;Temp;Humidity;BMP_temperature;BMP_pressure;BME280_temperature;BME280_humidity;BME280_pressure;Samples;Min_cycle;Max_cycle;Signal;HPM_P1;HPM_P2
2021/03/04 00:02:03;;;;;;;153.45;25.13;;;9.60;99.90;;;;;;5047546;28;20049;-95
2021/03/04 00:04:41;;;;;;;215.65;24.63;;;9.60;99.90;;;;;;5014180;28;20045;-96
2021/03/04 00:07:17;;;;;;;119.00;23.95;;;9.60;99.90;;;;;;5013301;28;20051;-95
2021/03/04 00:09:55;;;;;;;189.93;25.33;;;9.70;99.90;;;;;;5021429;28;20462;-95
2021/03/04 00:12:31;;;;;;;178.80;25.85;;;9.70;99.90;;;;;;5007347;28;20287;-96
2021/03/04 00:15:08;;;;;;;154.40;23.70;;;9.70;99.90;;;;;;5016559;28;20534;-95
2021/03/04 00:17:46;;;;;;;189.00;25.38;;;9.70;99.90;;;;;;5016383;28;20041;-95
2021/03/04 00:20:28;;;;;;;200.18;27.27;;;9.70;99.90;;;;;;5008594;28;20132;-95
2021/03/04 00:23:03;;;;;;;175.98;28.48;;;9.70;99.90;;;;;;5019234;28;20477;-95
2021/03/04 00:25:44;;;;;;;152.15;26.65;;;9.70;99.90;;;;;;5026830;28;20425;-95
2021/03/04 00:28:22;;;;;;;145.85;25.30;;;9.60;99.90;;;;;;5013458;28;20045;-95
2021/03/04 00:31:00;;;;;;;156.30;25.25;;;9.60;99.90;;;;;;5023694;28;20049;-95
2021/03/04 00:33:36;;;;;;;159.10;21.92;;;9.70;99.90;;;;;;5008372;28;20054;-96
2021/03/04 00:36:15;;;;;;;122.30;20.52;;;9.70;99.90;;;;;;5014986;28;20328;-95
2021/03/04 00:38:54;;;;;;;103.80;17.42;;;9.70;99.90;;;;;;5017240;28;20107;-95
2021/03/04 00:41:38;;;;;;;83.75;16.73;;;9.70;99.90;;;;;;4994280;28;20045;-96
2021/03/04 00:44:12;;;;;;;;;;;9.70;99.90;;;;;;5004442;28;20047;-95
2021/03/04 00:46:49;;;;;;;69.72;17.90;;;9.70;99.90;;;;;;5020438;28;19928;-95
2021/03/04 00:49:26;;;;;;;52.72;15.85;;;9.70;99.90;;;;;;5020386;28;20475;-95
2021/03/04 00:52:11;;;;;;;46.97;17.23;;;9.70;99.90;;;;;;5016501;28;20320;-95
2021/03/04 00:54:54;;;;;;;43.95;16.05;;;9.80;99.90;;;;;;5020504;28;20118;-94
2021/03/04 00:57:34;;;;;;;37.42;16.95;;;9.80;99.90;;;;;;5012687;28;20060;-95
2021/03/04 01:00:11;;;;;;;35.08;15.63;;;9.80;99.90;;;;;;5019939;28;20051;-94
2021/03/04 01:02:49;;;;;;;29.27;14.57;;;9.80;99.90;;;;;;5020635;28;20048;-95
2021/03/04 01:05:25;;;;;;;32.05;14.73;;;9.80;99.90;;;;;;4990649;28;20051;-95
2021/03/04 01:08:03;;;;;;;27.23;15.40;;;9.80;99.90;;;;;;5019865;28;20481;-94
2021/03/04 01:10:45;;;;;;;24.65;14.63;;;9.80;99.90;;;;;;5000721;28;20041;-95
2021/03/04 01:13:22;;;;;;;29.25;15.45;;;9.80;99.90;;;;;;5020367;28;20057;-95
2021/03/04 01:15:59;;;;;;;37.60;16.73;;;9.80;99.90;;;;;;5027875;28;20041;-94
2021/03/04 01:18:39;;;;;;;31.50;16.60;;;9.80;99.90;;;;;;4985344;28;20053;-95
2021/03/04 01:21:16;;;;;;;30.88;15.73;;;9.70;99.90;;;;;;5003515;28;20041;-95
2021/03/04 01:23:54;;;;;;;33.85;16.92;;;9.70;99.90;;;;;;5008856;28;20075;-95
2021/03/04 01:26:31;;;;;;;33.45;17.65;;;9.70;99.90;;;;;;5012214;28;20066;-95
2021/03/04 01:29:10;;;;;;;40.47;18.63;;;9.70;99.90;;;;;;5020229;28;20048;-92
2021/03/04 01:31:48;;;;;;;43.90;19.85;;;9.60;99.90;;;;;;5011699;28;20049;-95
2021/03/04 01:34:26;;;;;;;50.33;20.02;;;9.60;99.90;;;;;;5010329;28;20048;-95
2021/03/04 01:37:04;;;;;;;66.28;19.10;;;9.60;99.90;;;;;;5019438;28;20053;-95
2021/03/04 01:39:46;;;;;;;68.80;19.67;;;9.60;99.90;;;;;;5008370;28;20146;-96
2021/03/04 01:42:22;;;;;;;41.10;19.00;;;9.60;99.90;;;;;;5012435;28;20069;-95
2021/03/04 01:45:01;;;;;;;49.50;20.75;;;9.50;99.90;;;;;;5018096;28;20052;-95
2021/03/04 01:47:38;;;;;;;39.75;19.33;;;9.50;99.90;;;;;;5014295;28;20048;-95
2021/03/04 01:50:14;;;;;;;37.67;18.13;;;9.50;99.90;;;;;;5013291;28;20037;-96
2021/03/04 01:52:51;;;;;;;39.42;17.85;;;9.50;99.90;;;;;;5021700;28;20046;-95
2021/03/04 01:55:28;;;;;;;35.85;17.48;;;9.50;99.90;;;;;;5029666;28;20061;-95
2021/03/04 01:58:06;;;;;;;67.65;17.73;;;9.40;99.90;;;;;;5019758;28;20056;-95
2021/03/04 02:00:44;;;;;;;66.20;17.00;;;9.40;99.90;;;;;;5031558;28;20037;-95
2021/03/04 02:03:21;;;;;;;63.88;18.15;;;9.30;99.90;;;;;;5011916;28;20056;-95
2021/03/04 02:05:56;;;;;;;69.43;17.83;;;9.30;99.90;;;;;;5032852;28;20250;-95
2021/03/04 02:08:49;;;;;;;51.28;17.52;;;9.30;99.90;;;;;;4995147;28;20056;-95
2021/03/04 02:11:38;;;;;;;41.35;17.48;;;9.30;99.90;;;;;;4991462;28;20052;-95
2021/03/04 02:14:18;;;;;;;31.90;16.95;;;9.30;99.90;;;;;;5015285;28;20040;-95
2021/03/04 02:16:55;;;;;;;49.72;18.50;;;9.20;99.90;;;;;;5026474;28;20046;-95
2021/03/04 02:20:08;;;;;;;43.97;17.35;;;9.20;99.90;;;;;;5002695;28;20041;-95
2021/03/04 02:23:10;;;;;;;57.40;17.42;;;9.20;99.90;;;;;;4981577;28;20439;-95
2021/03/04 02:26:27;;;;;;;53.08;17.33;;;9.20;99.90;;;;;;5025156;28;20049;-95
2021/03/04 02:29:02;;;;;;;29.30;16.92;;;9.20;99.90;;;;;;4929971;28;20046;-95
2021/03/04 02:31:42;;;;;;;28.20;16.25;;;9.20;99.90;;;;;;4953882;28;20257;-95
2021/03/04 02:34:19;;;;;;;25.00;16.35;;;9.20;99.90;;;;;;4953544;28;20090;-94
2021/03/04 02:36:59;;;;;;;23.10;15.73;;;9.20;99.90;;;;;;4973874;28;20042;-95
2021/03/04 02:39:37;;;;;;;29.08;15.90;;;9.20;99.90;;;;;;4949470;28;20096;-95
2021/03/04 02:42:17;;;;;;;22.45;15.18;;;9.20;99.90;;;;;;4961003;28;20053;-95
2021/03/04 02:44:54;;;;;;;22.90;15.70;;;9.20;99.90;;;;;;4956741;28;20073;-95
2021/03/04 02:47:32;;;;;;;22.20;16.05;;;9.20;99.90;;;;;;4954160;28;20200;-95
2021/03/04 02:50:09;;;;;;;26.15;16.00;;;9.20;99.90;;;;;;4956077;28;20433;-95
2021/03/04 02:52:50;;;;;;;33.45;17.40;;;9.20;99.90;;;;;;4925527;28;20068;-95
2021/03/04 02:55:25;;;;;;;26.38;16.48;;;9.30;99.90;;;;;;4935713;28;20133;-96
2021/03/04 02:58:01;;;;;;;29.65;16.00;;;9.30;99.90;;;;;;4940021;28;20053;-95
2021/03/04 03:00:38;;;;;;;29.77;15.68;;;9.30;99.90;;;;;;5012033;28;20068;-95
2021/03/04 03:03:16;;;;;;;26.77;15.65;;;9.30;99.90;;;;;;5006788;28;20050;-95
2021/03/04 03:05:52;;;;;;;30.50;15.75;;;9.30;99.90;;;;;;5007881;28;20056;-95
2021/03/04 03:08:30;;;;;;;30.77;15.68;;;9.30;99.90;;;;;;5008390;28;20123;-95
2021/03/04 03:11:07;;;;;;;27.85;15.77;;;9.30;99.90;;;;;;5013870;28;20050;-95
2021/03/04 03:13:45;;;;;;;31.25;15.50;;;9.30;99.90;;;;;;5008067;28;20041;-95
2021/03/04 03:16:20;;;;;;;24.77;14.80;;;9.30;99.90;;;;;;5021140;28;20045;-95
2021/03/04 03:19:00;;;;;;;27.38;14.93;;;9.30;99.90;;;;;;5017883;28;20041;-94
2021/03/04 03:21:37;;;;;;;26.15;15.05;;;9.30;99.90;;;;;;4992215;28;20117;-94
2021/03/04 03:24:15;;;;;;;26.08;15.20;;;9.30;99.90;;;;;;5015363;28;20116;-95
2021/03/04 03:26:52;;;;;;;32.78;16.23;;;9.30;99.90;;;;;;5017785;28;20049;-95
2021/03/04 03:29:30;;;;;;;27.58;16.30;;;9.30;99.90;;;;;;5003576;28;20488;-95
2021/03/04 03:32:08;;;;;;;28.60;16.88;;;9.30;99.90;;;;;;5017021;28;20046;-95
2021/03/04 03:34:42;;;;;;;;;;;9.30;99.90;;;;;;5005339;28;20057;-95
2021/03/04 03:37:25;;;;;;;43.42;18.42;;;9.30;99.90;;;;;;4998318;28;20012;-95
2021/03/04 03:39:59;;;;;;;38.35;20.25;;;9.40;99.90;;;;;;5015016;28;20149;-95
2021/03/04 03:42:34;;;;;;;41.40;19.50;;;9.30;99.90;;;;;;5010869;28;20133;-95
2021/03/04 03:45:12;;;;;;;37.60;18.55;;;9.30;99.90;;;;;;5011445;28;20113;-94
2021/03/04 03:47:48;;;;;;;36.90;19.45;;;9.40;99.90;;;;;;5018274;28;20048;-95
2021/03/04 03:50:26;;;;;;;37.63;18.80;;;9.40;99.90;;;;;;4999471;28;20053;-96
2021/03/04 03:53:01;;;;;;;28.05;16.95;;;9.40;99.90;;;;;;5016844;28;20454;-95
2021/03/04 03:55:39;;;;;;;35.33;20.95;;;9.40;99.90;;;;;;5023730;28;20096;-95
2021/03/04 03:58:14;;;;;;;40.40;21.23;;;9.40;99.90;;;;;;5024479;28;20046;-94
2021/03/04 04:00:50;;;;;;;40.88;20.50;;;9.40;99.90;;;;;;5021101;28;20123;-95
2021/03/04 04:03:27;;;;;;;37.67;21.10;;;9.40;99.90;;;;;;5008220;28;20046;-94
2021/03/04 04:06:03;;;;;;;41.90;22.13;;;9.40;99.90;;;;;;5015087;28;20057;-95
2021/03/04 04:08:45;;;;;;;35.58;19.65;;;9.40;99.90;;;;;;4988936;28;20037;-95
2021/03/04 04:11:23;;;;;;;42.60;20.70;;;9.40;99.90;;;;;;5003631;28;20049;-95
2021/03/04 04:13:59;;;;;;;35.92;20.15;;;9.40;99.90;;;;;;5017389;28;20065;-95
2021/03/04 04:16:37;;;;;;;43.83;21.35;;;9.40;99.90;;;;;;5007420;28;20449;-95
2021/03/04 04:19:15;;;;;;;40.33;21.13;;;9.50;99.90;;;;;;5000642;28;20050;-94
2021/03/04 04:21:51;;;;;;;38.40;20.70;;;9.50;99.90;;;;;;5005292;28;20045;-94
2021/03/04 04:24:29;;;;;;;42.65;20.40;;;9.50;99.90;;;;;;5007310;28;20548;-95
2021/03/04 04:27:05;;;;;;;46.55;21.55;;;9.50;99.90;;;;;;5009330;28;20087;-95
2021/03/04 04:29:43;;;;;;;35.80;21.42;;;9.50;99.90;;;;;;5003021;28;20095;-95
2021/03/04 04:32:20;;;;;;;40.83;21.98;;;9.50;99.90;;;;;;5008995;28;20046;-95
2021/03/04 04:35:02;;;;;;;41.63;20.50;;;9.50;99.90;;;;;;5023685;28;20099;-95
2021/03/04 04:37:38;;;;;;;40.90;20.90;;;9.50;99.90;;;;;;5011673;28;20103;-95
2021/03/04 04:40:18;;;;;;;35.50;20.35;;;9.50;99.90;;;;;;5012594;28;20601;-95
2021/03/04 04:42:55;;;;;;;50.65;23.23;;;9.50;99.90;;;;;;5022479;28;20029;-95
2021/03/04 04:45:31;;;;;;;43.17;21.02;;;9.50;99.90;;;;;;5018438;28;20044;-95
2021/03/04 04:48:08;;;;;;;44.17;21.65;;;9.50;99.90;;;;;;5018087;28;20044;-95
2021/03/04 04:50:47;;;;;;;37.97;19.23;;;9.50;99.90;;;;;;4995608;28;20048;-95
2021/03/04 04:53:24;;;;;;;41.55;21.75;;;9.50;99.90;;;;;;5001722;28;20049;-95
2021/03/04 04:56:02;;;;;;;34.78;20.25;;;9.50;99.90;;;;;;5018987;28;20045;-95
2021/03/04 04:58:44;;;;;;;42.70;21.75;;;9.50;99.90;;;;;;4991922;28;20037;-95
2021/03/04 05:01:21;;;;;;;44.20;21.60;;;9.50;99.90;;;;;;5009800;28;20049;-95
2021/03/04 05:03:58;;;;;;;40.45;20.52;;;9.50;99.90;;;;;;5028219;28;20041;-95
2021/03/04 05:06:36;;;;;;;38.90;20.08;;;9.50;99.90;;;;;;4993376;28;21238;-95
2021/03/04 05:09:11;;;;;;;39.97;18.85;;;9.50;99.90;;;;;;5013295;28;20053;-94
2021/03/04 05:11:48;;;;;;;32.03;18.75;;;9.40;99.90;;;;;;5020419;28;20045;-95
2021/03/04 05:14:25;;;;;;;62.22;19.67;;;9.40;99.90;;;;;;4999860;28;20037;-94
2021/03/04 05:17:02;;;;;;;86.00;20.05;;;9.40;99.90;;;;;;5024414;28;20413;-94
2021/03/04 05:19:41;;;;;;;507.08;31.88;;;9.30;99.90;;;;;;4991131;28;20051;-95
2021/03/04 05:22:20;;;;;;;236.30;23.55;;;9.30;99.90;;;;;;5007973;28;20060;-94
2021/03/04 05:24:56;;;;;;;71.13;19.45;;;9.30;99.90;;;;;;5033488;28;20136;-95
2021/03/04 05:27:37;;;;;;;46.75;19.02;;;9.30;99.90;;;;;;5003746;28;20055;-94
2021/03/04 05:30:14;;;;;;;54.53;22.27;;;9.30;99.90;;;;;;5024538;28;20140;-95
2021/03/04 05:32:52;;;;;;;54.08;22.23;;;9.20;99.90;;;;;;5019251;28;20048;-95
2021/03/04 05:35:28;;;;;;;49.38;22.17;;;9.20;99.90;;;;;;5004661;28;20106;-94
2021/03/04 05:38:02;;;;;;;57.58;22.98;;;9.20;99.90;;;;;;5029716;28;20048;-95
2021/03/04 05:40:42;;;;;;;71.97;23.73;;;9.20;99.90;;;;;;5021192;28;20052;-95
2021/03/04 05:43:18;;;;;;;76.85;23.70;;;9.20;99.90;;;;;;5020002;28;20103;-94
2021/03/04 05:45:58;;;;;;;56.55;23.95;;;9.20;99.90;;;;;;5023287;28;20364;-95
2021/03/04 05:48:34;;;;;;;80.47;25.25;;;9.20;99.90;;;;;;5011772;28;20122;-95
2021/03/04 05:51:14;;;;;;;84.47;24.90;;;9.20;99.90;;;;;;5017203;28;20044;-95
2021/03/04 05:53:57;;;;;;;79.68;26.10;;;9.20;99.90;;;;;;5023446;28;20049;-95
2021/03/04 05:56:40;;;;;;;90.70;27.85;;;9.20;99.90;;;;;;4995111;28;20051;-95
2021/03/04 05:59:16;;;;;;;124.68;26.30;;;9.20;99.90;;;;;;5015719;28;20053;-95
2021/03/04 06:01:52;;;;;;;111.70;30.20;;;9.20;99.90;;;;;;5025968;28;20065;-94
2021/03/04 06:04:37;;;;;;;141.95;28.13;;;9.20;99.90;;;;;;5015073;28;20136;-94
2021/03/04 06:07:13;;;;;;;;;;;9.30;99.90;;;;;;5003968;28;20041;-95
2021/03/04 06:09:48;;;;;;;228.18;30.27;;;9.30;99.90;;;;;;4996202;28;19920;-94
2021/03/04 06:12:25;;;;;;;200.15;30.63;;;9.30;99.90;;;;;;5022579;28;20045;-94
2021/03/04 06:15:00;;;;;;;190.73;31.77;;;9.30;99.90;;;;;;5020566;28;20049;-94
2021/03/04 06:17:36;;;;;;;187.20;30.67;;;9.30;99.90;;;;;;5002254;28;20045;-92
2021/03/04 06:20:08;;;;;;;165.38;30.95;;;9.30;99.90;;;;;;5043570;28;20045;-90
2021/03/04 06:22:50;;;;;;;146.40;29.92;;;9.30;99.90;;;;;;5017369;28;20048;-94
2021/03/04 06:25:26;;;;;;;185.02;33.30;;;9.30;99.90;;;;;;5017029;28;20049;-93
2021/03/04 06:28:01;;;;;;;;;;;9.30;99.90;;;;;;5014212;28;20037;-95
2021/03/04 06:30:45;;;;;;;181.15;31.02;;;9.30;99.90;;;;;;5015323;28;19974;-94
2021/03/04 06:33:23;;;;;;;175.02;33.92;;;9.30;99.90;;;;;;5008194;28;20049;-95
2021/03/04 06:36:01;;;;;;;133.57;32.97;;;9.30;99.90;;;;;;5012913;28;20046;-94
2021/03/04 06:38:40;;;;;;;134.60;31.63;;;9.30;99.90;;;;;;4987816;28;20121;-95
2021/03/04 06:41:22;;;;;;;128.57;32.45;;;9.30;99.90;;;;;;5012559;28;20462;-94
2021/03/04 06:44:04;;;;;;;136.77;31.55;;;9.30;99.90;;;;;;5012027;28;20045;-94
2021/03/04 06:46:48;;;;;;;104.30;29.50;;;9.30;99.90;;;;;;5007697;28;20068;-94
2021/03/04 06:49:25;;;;;;;134.80;32.70;;;9.30;99.90;;;;;;4999735;28;20053;-94
2021/03/04 06:52:02;;;;;;;122.63;30.85;;;9.30;99.90;;;;;;5017659;28;20091;-94
2021/03/04 06:54:38;;;;;;;148.48;33.83;;;9.30;99.90;;;;;;5011778;28;20132;-94
2021/03/04 06:57:14;;;;;;;118.35;30.33;;;9.30;99.90;;;;;;5008553;28;20061;-94
2021/03/04 06:59:49;;;;;;;136.65;31.73;;;9.30;99.90;;;;;;5027608;28;20050;-93
2021/03/04 07:02:41;;;;;;;141.95;30.90;;;9.30;99.90;;;;;;5019205;28;20057;-93
2021/03/04 07:05:15;;;;;;;123.78;30.92;;;9.30;99.90;;;;;;5001225;28;20045;-92
2021/03/04 07:07:53;;;;;;;117.25;31.08;;;9.30;99.90;;;;;;5023765;28;20045;-92
2021/03/04 07:10:29;;;;;;;93.50;30.20;;;9.30;99.90;;;;;;5008763;28;20561;-92
2021/03/04 07:13:02;;;;;;;92.80;32.28;;;9.20;99.90;;;;;;5015837;28;20053;-93
2021/03/04 07:15:37;;;;;;;79.85;31.73;;;9.30;99.90;;;;;;4983751;28;20100;-92
2021/03/04 07:18:10;;;;;;;78.45;30.15;;;9.20;99.90;;;;;;5009219;28;20099;-91
2021/03/04 07:20:44;;;;;;;69.22;29.92;;;9.20;99.90;;;;;;5022901;28;20049;-91
2021/03/04 07:23:19;;;;;;;73.65;29.83;;;9.20;99.90;;;;;;5002348;28;20095;-91
2021/03/04 07:25:55;;;;;;;80.10;30.65;;;9.20;99.90;;;;;;5019411;28;20033;-90
2021/03/04 07:28:28;;;;;;;77.30;31.15;;;9.30;99.90;;;;;;5030067;28;20551;-91
2021/03/04 07:31:02;;;;;;;70.57;29.27;;;9.30;99.90;;;;;;5025015;28;20051;-93
2021/03/04 07:33:43;;;;;;;57.30;27.92;;;9.30;99.90;;;;;;4996959;28;20080;-93
2021/03/04 07:36:25;;;;;;;71.07;30.15;;;9.30;99.90;;;;;;5003816;28;20510;-93
2021/03/04 07:39:02;;;;;;;65.25;28.30;;;9.30;99.90;;;;;;5013590;28;20058;-93
2021/03/04 07:41:45;;;;;;;64.82;27.30;;;9.30;99.90;;;;;;5007493;28;20041;-93
2021/03/04 07:44:31;;;;;;;71.35;28.75;;;9.30;99.90;;;;;;4992024;28;20057;-93
2021/03/04 07:47:08;;;;;;;67.13;28.48;;;9.30;99.90;;;;;;5032540;28;20074;-93
2021/03/04 07:49:48;;;;;;;71.47;28.15;;;9.30;99.90;;;;;;5015125;28;20100;-93
2021/03/04 07:52:26;;;;;;;64.22;27.83;;;9.40;99.90;;;;;;5017457;28;20501;-90
2021/03/04 07:55:10;;;;;;;62.63;26.75;;;9.40;99.90;;;;;;5020657;28;20058;-94
2021/03/04 07:57:47;;;;;;;59.38;26.85;;;9.40;99.90;;;;;;4990232;28;20049;-93
2021/03/04 08:00:34;;;;;;;57.95;26.23;;;9.50;99.90;;;;;;5008105;28;20045;-93
2021/03/04 08:03:12;;;;;;;51.60;25.30;;;9.40;99.90;;;;;;5007091;28;20037;-93
2021/03/04 08:05:50;;;;;;;66.85;27.98;;;9.50;99.90;;;;;;5021492;28;20065;-93
2021/03/04 08:08:26;;;;;;;57.95;26.75;;;9.50;99.90;;;;;;5018444;28;20049;-93
2021/03/04 08:11:03;;;;;;;52.35;25.77;;;9.60;99.90;;;;;;5009658;28;20045;-93
2021/03/04 08:13:43;;;;;;;50.95;23.60;;;9.60;99.90;;;;;;5007054;28;20058;-94
2021/03/04 08:16:19;;;;;;;54.35;24.67;;;9.60;99.90;;;;;;5029926;28;20050;-93
2021/03/04 08:18:58;;;;;;;47.35;24.48;;;9.60;99.90;;;;;;5031092;28;20045;-93
2021/03/04 08:21:40;;;;;;;48.90;24.65;;;9.60;99.90;;;;;;5018714;28;20052;-94
2021/03/04 08:24:17;;;;;;;47.80;25.50;;;9.60;99.90;;;;;;5002094;28;20053;-94
2021/03/04 08:26:57;;;;;;;52.30;25.27;;;9.70;99.90;;;;;;5010258;28;20050;-93
2021/03/04 08:29:31;;;;;;;43.40;24.27;;;9.70;99.90;;;;;;5020478;28;20132;-94
2021/03/04 08:32:07;;;;;;;42.17;23.92;;;9.80;99.90;;;;;;5025380;28;20045;-94
2021/03/04 08:34:42;;;;;;;44.22;23.65;;;9.90;99.90;;;;;;5014191;28;20081;-94
2021/03/04 08:37:23;;;;;;;45.95;24.23;;;9.90;99.90;;;;;;5032849;28;20137;-94
2021/03/04 08:40:02;;;;;;;41.40;24.02;;;9.90;99.90;;;;;;5023091;28;20037;-93
2021/03/04 08:42:35;;;;;;;40.25;23.02;;;10.00;99.90;;;;;;5014215;28;20100;-94
2021/03/04 08:45:08;;;;;;;37.15;22.33;;;10.00;99.90;;;;;;5019465;28;20080;-93
2021/03/04 08:47:41;;;;;;;37.42;21.63;;;10.10;99.90;;;;;;5025397;28;20045;-94
2021/03/04 08:50:16;;;;;;;39.30;22.38;;;10.10;99.90;;;;;;5017511;28;20041;-94
2021/03/04 08:52:50;;;;;;;43.97;23.50;;;10.10;99.90;;;;;;5029974;28;20042;-94
2021/03/04 08:55:26;;;;;;;40.25;22.30;;;10.10;99.90;;;;;;5031482;28;20073;-94
2021/03/04 08:58:09;;;;;;;41.75;20.77;;;10.20;99.90;;;;;;5023364;28;20046;-94
2021/03/04 09:00:49;;;;;;;33.30;19.88;;;10.20;99.90;;;;;;5014718;28;20065;-94
2021/03/04 09:03:22;;;;;;;30.08;18.58;;;10.20;99.90;;;;;;5013393;28;20127;-94
2021/03/04 09:06:12;;;;;;;33.58;18.90;;;10.30;99.90;;;;;;5013905;28;20498;-94
2021/03/04 09:08:47;;;;;;;35.00;19.73;;;10.30;99.90;;;;;;5009617;28;20037;-94
2021/03/04 09:11:23;;;;;;;35.63;18.58;;;10.40;99.90;;;;;;5013277;28;20561;-94
2021/03/04 09:14:08;;;;;;;32.67;16.40;;;10.40;99.90;;;;;;5019965;28;20099;-94
2021/03/04 09:16:50;;;;;;;37.90;17.05;;;10.50;99.90;;;;;;5012551;28;20056;-94
2021/03/04 09:19:38;;;;;;;32.55;16.77;;;10.50;99.90;;;;;;5014574;28;20160;-94
2021/03/04 09:22:14;;;;;;;23.95;15.23;;;10.50;99.90;;;;;;5015034;28;20105;-94
2021/03/04 09:24:48;;;;;;;25.40;15.20;;;10.60;99.90;;;;;;5015709;28;20490;-94
2021/03/04 09:27:24;;;;;;;26.50;14.93;;;10.60;99.90;;;;;;5003857;28;20055;-96
2021/03/04 09:30:01;;;;;;;27.52;14.35;;;10.60;99.90;;;;;;5028487;28;20152;-94
2021/03/04 09:32:34;;;;;;;29.00;14.48;;;10.70;99.90;;;;;;5019401;28;20042;-95
2021/03/04 09:35:15;;;;;;;26.30;14.35;;;10.70;99.90;;;;;;5018775;28;20045;-93
2021/03/04 09:37:52;;;;;;;22.38;12.77;;;10.70;99.90;;;;;;5037514;28;20052;-94
2021/03/04 09:40:30;;;;;;;21.30;13.35;;;10.80;99.90;;;;;;5013488;28;20056;-94
2021/03/04 09:43:13;;;;;;;25.48;13.02;;;10.80;99.90;;;;;;5012660;28;20072;-94
2021/03/04 09:45:53;;;;;;;18.77;12.85;;;10.90;99.90;;;;;;5008951;28;20052;-94
2021/03/04 09:48:37;;;;;;;20.50;12.32;;;10.90;99.90;;;;;;5010409;28;20060;-93
2021/03/04 09:51:11;;;;;;;19.35;11.82;;;11.00;99.90;;;;;;5029817;28;20052;-91
2021/03/04 09:53:47;;;;;;;19.00;11.75;;;11.00;99.90;;;;;;5032979;28;20068;-92
2021/03/04 09:56:23;;;;;;;26.10;12.10;;;11.00;99.90;;;;;;4998980;28;20055;-92
2021/03/04 09:58:59;;;;;;;18.00;11.15;;;11.10;99.90;;;;;;5032655;28;20064;-93
2021/03/04 10:01:39;;;;;;;17.38;11.55;;;11.00;99.90;;;;;;5017103;28;20124;-92
2021/03/04 10:04:11;;;;;;;26.23;11.68;;;11.10;99.90;;;;;;5020695;28;20049;-87
2021/03/04 10:06:42;;;;;;;15.10;10.57;;;11.10;99.90;;;;;;5018910;28;20433;-92
2021/03/04 10:09:27;;;;;;;15.45;8.98;;;11.20;99.90;;;;;;5018178;28;20072;-92
2021/03/04 10:12:03;;;;;;;16.23;9.88;;;11.30;99.90;;;;;;5016076;28;20038;-93
2021/03/04 10:14:46;;;;;;;21.52;11.05;;;11.30;99.90;;;;;;4988217;28;20118;-93
2021/03/04 10:17:21;;;;;;;19.17;10.73;;;11.20;99.90;;;;;;5012555;28;20049;-93
2021/03/04 10:19:56;;;;;;;18.95;11.95;;;11.20;99.90;;;;;;5021340;28;20044;-93
2021/03/04 10:22:29;;;;;;;19.38;10.95;;;11.20;99.90;;;;;;5040491;28;20048;-92
2021/03/04 10:25:17;;;;;;;14.93;8.48;;;11.20;99.90;;;;;;5039021;28;20083;-93
2021/03/04 10:27:51;;;;;;;17.20;8.90;;;11.20;99.90;;;;;;5025291;28;20055;-93
2021/03/04 10:30:29;;;;;;;16.77;9.43;;;11.20;99.90;;;;;;5013484;28;20137;-93
2021/03/04 10:33:08;;;;;;;13.25;8.82;;;11.20;99.90;;;;;;5020902;28;20037;-93
2021/03/04 10:35:45;;;;;;;15.57;8.27;;;11.20;99.90;;;;;;4984126;28;20052;-93
2021/03/04 10:38:22;;;;;;;15.52;7.60;;;11.20;99.90;;;;;;5026378;28;20041;-93
2021/03/04 10:40:56;;;;;;;9.57;6.20;;;11.20;99.90;;;;;;5024050;28;20080;-93
2021/03/04 10:43:31;;;;;;;12.57;7.32;;;11.20;99.90;;;;;;5016848;28;20049;-93
2021/03/04 10:46:14;;;;;;;15.25;5.43;;;11.30;99.90;;;;;;5010648;28;20387;-92
2021/03/04 10:48:49;;;;;;;9.07;4.95;;;11.30;99.90;;;;;;5022914;28;20037;-93
2021/03/04 10:51:26;;;;;;;10.82;6.05;;;11.30;99.90;;;;;;5010422;28;20070;-93
2021/03/04 10:54:00;;;;;;;15.85;6.75;;;11.30;99.90;;;;;;5032060;28;20043;-92
2021/03/04 10:56:38;;;;;;;9.85;5.78;;;11.30;99.90;;;;;;4998661;28;20056;-93
2021/03/04 10:59:13;;;;;;;11.82;5.45;;;11.30;99.90;;;;;;5027949;28;20491;-92
2021/03/04 11:01:48;;;;;;;12.15;6.05;;;11.30;99.90;;;;;;5021320;28;20044;-93
2021/03/04 11:04:25;;;;;;;12.52;6.38;;;11.30;99.90;;;;;;5036181;28;20139;-93
2021/03/04 11:07:01;;;;;;;11.73;5.88;;;11.30;99.90;;;;;;5015419;28;20793;-93
2021/03/04 11:09:37;;;;;;;17.65;6.47;;;11.40;99.90;;;;;;5009509;28;20048;-93
2021/03/04 11:12:13;;;;;;;9.55;4.97;;;11.40;99.90;;;;;;5007544;28;20161;-92
2021/03/04 11:14:50;;;;;;;10.52;4.18;;;11.50;99.90;;;;;;5025064;28;20057;-93
2021/03/04 11:17:26;;;;;;;12.98;4.82;;;11.50;99.90;;;;;;5031256;28;20049;-93
2021/03/04 11:20:02;;;;;;;9.10;4.25;;;11.60;99.90;;;;;;5021110;28;20060;-93
2021/03/04 11:22:34;;;;;;;10.68;4.82;;;11.60;99.90;;;;;;5008887;28;20069;-91
2021/03/04 11:25:10;;;;;;;10.75;4.65;;;11.60;99.90;;;;;;5016025;28;20053;-92
2021/03/04 11:27:46;;;;;;;12.77;5.03;;;11.70;99.90;;;;;;5019846;28;20063;-93
2021/03/04 11:30:21;;;;;;;8.27;3.53;;;11.80;99.90;;;;;;5010716;28;20059;-92
2021/03/04 11:32:56;;;;;;;8.68;4.25;;;11.80;99.90;;;;;;5013294;28;20041;-93
2021/03/04 11:35:31;;;;;;;9.25;4.72;;;11.70;99.90;;;;;;5014868;28;20041;-93
2021/03/04 11:38:09;;;;;;;9.10;4.38;;;11.70;99.90;;;;;;5016980;28;20363;-93
2021/03/04 11:40:44;;;;;;;11.00;4.70;;;11.70;99.90;;;;;;5029521;28;20052;-93
2021/03/04 11:43:20;;;;;;;10.25;4.60;;;11.70;99.90;;;;;;5013763;28;20049;-93
2021/03/04 11:45:54;;;;;;;11.88;5.15;;;11.80;99.90;;;;;;5020694;28;20049;-93
2021/03/04 11:48:31;;;;;;;10.70;5.47;;;11.90;99.90;;;;;;5023433;28;20049;-92
2021/03/04 11:51:10;;;;;;;11.35;5.43;;;12.00;99.90;;;;;;5031681;28;20481;-94
2021/03/04 11:53:42;;;;;;;;;;;12.10;99.90;;;;;;5033103;28;20041;-93
2021/03/04 11:56:24;;;;;;;9.20;4.90;;;12.20;99.90;;;;;;5023384;28;19928;-93
2021/03/04 11:59:06;;;;;;;10.02;5.13;;;12.30;99.90;;;;;;5024066;28;20049;-93
2021/03/04 12:01:42;;;;;;;9.25;4.72;;;12.40;99.90;;;;;;5000275;28;20049;-93
2021/03/04 12:04:18;;;;;;;8.68;4.88;;;12.50;99.90;;;;;;5039023;28;20040;-93
2021/03/04 12:06:52;;;;;;;9.20;4.65;;;12.60;99.90;;;;;;5017133;28;20052;-93
2021/03/04 12:09:26;;;;;;;11.50;5.43;;;12.70;99.90;;;;;;5013504;28;20103;-93
2021/03/04 12:11:58;;;;;;;10.02;5.60;;;12.70;99.90;;;;;;5032437;28;20054;-93
2021/03/04 12:14:28;;;;;;;10.27;5.43;;;12.60;99.90;;;;;;5024063;28;20115;-93
2021/03/04 12:17:05;;;;;;;12.40;6.53;;;12.60;99.90;;;;;;5030621;28;20076;-93
2021/03/04 12:19:40;;;;;;;10.25;5.97;;;12.60;99.90;;;;;;5018685;28;20482;-93
2021/03/04 12:22:17;;;;;;;12.93;5.38;;;12.60;99.90;;;;;;5019019;28;20047;-92
2021/03/04 12:24:53;;;;;;;10.95;6.32;;;12.70;99.90;;;;;;5018058;28;20064;-93
2021/03/04 12:27:29;;;;;;;10.45;5.32;;;12.80;99.90;;;;;;5019473;28;20073;-93
2021/03/04 12:30:06;;;;;;;9.90;5.30;;;12.80;99.90;;;;;;5012605;28;20486;-93
2021/03/04 12:32:41;;;;;;;11.77;5.55;;;13.00;99.90;;;;;;5013350;28;20449;-94
2021/03/04 12:35:18;;;;;;;10.48;5.45;;;13.10;99.90;;;;;;5009935;28;20067;-94
2021/03/04 12:37:54;;;;;;;13.57;7.05;;;13.20;99.90;;;;;;5017151;28;20045;-94
2021/03/04 12:40:34;;;;;;;11.73;5.53;;;13.20;99.90;;;;;;5011853;28;20049;-94
2021/03/04 12:43:11;;;;;;;13.07;5.95;;;13.30;99.90;;;;;;5022256;28;20051;-94
2021/03/04 12:45:48;;;;;;;19.55;9.20;;;13.40;99.90;;;;;;4997334;28;20079;-94
2021/03/04 12:48:24;;;;;;;11.27;6.35;;;13.30;99.90;;;;;;5014369;28;20128;-94
2021/03/04 12:51:03;;;;;;;9.25;6.00;;;13.30;99.90;;;;;;5014551;28;20044;-94
2021/03/04 12:53:43;;;;;;;15.90;6.65;;;13.30;99.90;;;;;;5025697;28;20120;-93
2021/03/04 12:56:20;;;;;;;10.77;5.80;;;13.30;99.90;;;;;;5002866;28;20059;-94
2021/03/04 12:58:56;;;;;;;11.35;6.70;;;13.40;99.90;;;;;;5026320;28;20045;-93
2021/03/04 13:01:32;;;;;;;10.05;6.63;;;13.40;99.90;;;;;;5024548;28;20048;-94
2021/03/04 13:04:10;;;;;;;12.35;6.18;;;13.40;99.90;;;;;;5024396;28;20075;-93
2021/03/04 13:06:46;;;;;;;11.50;6.55;;;13.50;99.90;;;;;;4993187;28;20064;-94
2021/03/04 13:09:26;;;;;;;13.25;7.25;;;13.40;99.90;;;;;;4991384;28;20114;-95
2021/03/04 13:12:03;;;;;;;17.17;8.75;;;13.40;99.90;;;;;;5022822;28;20056;-94
2021/03/04 13:14:46;;;;;;;16.08;10.13;;;13.20;99.90;;;;;;5011093;28;20057;-94
2021/03/04 13:17:34;;;;;;;17.25;8.07;;;13.10;99.90;;;;;;5008552;28;20468;-94
2021/03/04 13:20:10;;;;;;;14.02;7.53;;;13.00;99.90;;;;;;5011704;28;20053;-94
2021/03/04 13:22:47;;;;;;;11.65;7.95;;;12.90;99.90;;;;;;5018333;28;20496;-95
2021/03/04 13:25:23;;;;;;;11.35;7.22;;;12.90;99.90;;;;;;5021787;28;20053;-94
2021/03/04 13:28:00;;;;;;;13.25;7.60;;;12.70;99.90;;;;;;5022953;28;20048;-94
2021/03/04 13:30:36;;;;;;;12.50;7.95;;;12.70;99.90;;;;;;5000959;28;20049;-94